Jefferson, NC

7:20 AM EDT on May 30, 2015 (GMT -0400)
Laurel Springs | | Change Station
CLOSE
Current Station
Personal Weather Station
Location: Laurel Springs, NC
Elevation: 3030 ft
Nearby Weather Stations

Elev 3030 ft 36.42 °N, 81.30 °W | Updated 12 minutes ago

Fog
Fog
59.4 °F
Feels Like 59.4 °F
N
0.0
Wind Variable Wind from SE
Gusts 0.0 mph

Today
High -- | Low -- °F
--% Chance of Precip.
Yesterday
High -- | Low -- °F
Precip. -- in
6:10 AM 8:36 PM
Waxing Gibbous, 89% visible
Pressure 30.29 in
Visibility 0.2 miles
Clouds Overcast 200 ft
Dew Point 58 °F
Humidity 96%
Rainfall 0.02 in
Snow Depth Not available.
UV 0 out of 12
Pollen 6.70 out of 12
Air Quality Not available.
Flu Activity No Activity
METAR KGEV 301115Z AUTO 00000KT M1/4SM FG OVC002 16/16 A3029 RMK AO2 T01550155

More Conditions Fewer Conditions

Pressure 30.29 in
Visibility 0.2 miles
Clouds Overcast 200 ft
Dew Point 58 °F
Humidity 96%
Rainfall 0.02 in
Snow Depth Not available.
UV 0 out of 12
Pollen 6.70 out of 12
Air Quality Not available.
Flu Activity No Activity
METAR KGEV 301115Z AUTO 00000KT M1/4SM FG OVC002 16/16 A3029 RMK AO2 T01550155

More Conditions Fewer Conditions

10-Day Weather Forecast

Almanac

Astronomy

May. 30, 2015 Rise Set
Actual Time
Civil Twilight
Nautical Twilight
Astronomical Twilight
Moon
Length of Visible Light
Length of Day
Tomorrow will be .
, % of the Moon is Illuminated

Today's Extremes

State Highs State Lows

Community

WunderPhotos

Upload Photos

1,825,481 photos uploaded!

WunderBlogs® & News

Nearby

Air Quality

  Air Quality AQ Index Pollutant
Not available.

Snow Depth

Station Depth Elevation

Earthquake Activity

City Distance Mag. Time & Date
Minimum magnitude displayed is 2.5.

Coastal Water Temperatures

Place Temperature

Stations

Nearby Weather Stations

Station Location Temp. Windchill Dew Point Humidity Wind Precip. Elev Updated Type